createdAt,value
2019-04-26T00:01:21.972Z,14.40
2019-04-26T00:03:53.200Z,16.20
2019-04-26T00:06:24.756Z,17.70
2019-04-26T00:09:13.717Z,16.23
2019-04-26T00:12:16.401Z,15.63
2019-04-26T00:15:05.058Z,15.57
2019-04-26T00:17:45.440Z,10.30
2019-04-26T00:20:17.128Z,13.80
2019-04-26T00:22:48.723Z,13.30
2019-04-26T00:25:20.005Z,15.73
2019-04-26T00:27:51.129Z,11.47
2019-04-26T00:30:23.469Z,15.77
2019-04-26T00:32:54.624Z,15.37
2019-04-26T00:35:26.867Z,12.87
2019-04-26T00:37:58.032Z,13.00
2019-04-26T00:40:29.292Z,21.93
2019-04-26T00:43:03.311Z,16.83
2019-04-26T00:45:36.967Z,18.40
2019-04-26T00:48:09.618Z,16.20
2019-04-26T00:50:41.148Z,15.33
2019-04-26T00:53:13.291Z,17.20
2019-04-26T00:55:45.906Z,14.43
2019-04-26T00:58:18.461Z,12.97
2019-04-26T01:00:49.877Z,19.93
2019-04-26T01:03:21.032Z,23.93
2019-04-26T01:05:59.788Z,11.40
2019-04-26T01:08:25.483Z,15.07
2019-04-26T01:10:56.640Z,15.27
2019-04-26T01:13:27.814Z,13.67
2019-04-26T01:15:58.912Z,13.03
2019-04-26T01:18:30.277Z,15.03
2019-04-26T01:21:03.888Z,13.40
2019-04-26T01:23:38.785Z,13.47
2019-04-26T01:26:17.863Z,18.07
2019-04-26T01:28:58.965Z,17.50
2019-04-26T01:31:34.392Z,17.43
2019-04-26T01:34:05.586Z,16.67
2019-04-26T01:36:38.996Z,22.57
2019-04-26T01:39:17.032Z,13.80
2019-04-26T01:42:12.157Z,15.23
2019-04-26T01:45:17.990Z,13.17
2019-04-26T01:47:51.935Z,19.03
2019-04-26T01:50:27.439Z,16.73
2019-04-26T01:52:59.139Z,19.03
2019-04-26T01:55:32.594Z,18.83
2019-04-26T01:58:06.626Z,20.53
2019-04-26T02:00:59.700Z,14.83
2019-04-26T02:03:31.819Z,16.10
2019-04-26T02:06:03.024Z,19.77
2019-04-26T02:08:34.118Z,23.07
2019-04-26T02:11:05.257Z,18.13
2019-04-26T02:13:36.510Z,17.80
2019-04-26T02:16:07.659Z,17.53
2019-04-26T02:18:38.876Z,19.83
2019-04-26T02:21:30.182Z,19.13
2019-04-26T02:24:26.295Z,19.97
2019-04-26T02:26:59.107Z,18.20
2019-04-26T02:29:30.446Z,19.43
2019-04-26T02:32:05.399Z,17.40
2019-04-26T02:34:38.450Z,18.23
2019-04-26T02:37:12.204Z,15.20
2019-04-26T02:39:43.541Z,21.60
2019-04-26T02:42:28.206Z,22.20
2019-04-26T02:45:26.948Z,24.47
2019-04-26T02:48:19.358Z,17.83
2019-04-26T02:50:56.711Z,17.50
2019-04-26T02:53:43.070Z,14.00
2019-04-26T02:56:35.640Z,20.00
2019-04-26T02:59:45.655Z,19.40
2019-04-26T03:02:22.454Z,19.63
2019-04-26T03:05:00.409Z,20.87
2019-04-26T03:08:02.145Z,18.17
2019-04-26T03:10:45.381Z,16.40
2019-04-26T03:13:32.948Z,22.23
2019-04-26T03:16:33.412Z,15.10
2019-04-26T03:19:31.454Z,15.73
2019-04-26T03:22:42.712Z,18.87
2019-04-26T03:25:25.130Z,19.80
2019-04-26T03:28:25.150Z,14.67
2019-04-26T03:31:14.366Z,19.60
2019-04-26T03:34:02.003Z,14.93
2019-04-26T03:37:22.762Z,14.00
2019-04-26T03:40:07.495Z,16.97
2019-04-26T03:43:22.508Z,17.47
2019-04-26T03:46:24.170Z,17.40
2019-04-26T03:49:13.944Z,19.40
2019-04-26T03:51:54.587Z,19.20
2019-04-26T03:54:28.958Z,19.30
2019-04-26T03:57:14.728Z,16.83
2019-04-26T04:00:19.665Z,20.33
2019-04-26T04:03:17.539Z,17.30
2019-04-26T04:05:51.714Z,15.07
2019-04-26T04:08:27.457Z,16.43
2019-04-26T04:11:04.030Z,19.87
2019-04-26T04:13:57.117Z,20.37
2019-04-26T04:17:22.805Z,18.23
2019-04-26T04:20:26.608Z,19.53
2019-04-26T04:23:39.765Z,18.40
2019-04-26T04:26:14.570Z,19.50
2019-04-26T04:29:18.605Z,20.77
2019-04-26T04:31:54.113Z,18.43
2019-04-26T04:34:33.139Z,23.83
2019-04-26T04:37:07.110Z,17.33
2019-04-26T04:40:11.088Z,16.83
2019-04-26T04:43:04.911Z,18.93
2019-04-26T04:46:28.279Z,20.50
2019-04-26T04:49:31.349Z,19.70
2019-04-26T04:52:50.156Z,20.47
2019-04-26T04:55:30.373Z,16.07
2019-04-26T04:58:15.349Z,16.17
2019-04-26T05:01:44.169Z,16.70
2019-04-26T05:04:27.953Z,21.47
2019-04-26T05:07:29.638Z,20.37
2019-04-26T05:10:26.708Z,20.70
2019-04-26T05:13:31.353Z,25.17
2019-04-26T05:16:20.778Z,16.53
2019-04-26T05:19:35.873Z,19.93
2019-04-26T05:22:30.757Z,14.97
2019-04-26T05:25:49.843Z,17.80
2019-04-26T05:28:35.178Z,18.37
2019-04-26T05:31:32.958Z,26.83
2019-04-26T05:34:29.575Z,22.17
2019-04-26T05:37:24.403Z,23.23
2019-04-26T05:40:11.724Z,21.40
2019-04-26T05:43:29.800Z,20.60
2019-04-26T05:46:47.035Z,20.20
2019-04-26T05:50:02.634Z,14.10
2019-04-26T05:53:29.808Z,18.00
2019-04-26T05:56:36.127Z,19.10
2019-04-26T05:59:41.214Z,18.87
2019-04-26T06:03:17.381Z,20.32
2019-04-26T06:06:29.180Z,18.60
2019-04-26T06:09:43.077Z,21.82
2019-04-26T06:12:45.392Z,17.57
2019-04-26T06:15:44.458Z,20.55
2019-04-26T06:19:14.318Z,13.48
2019-04-26T06:22:15.313Z,13.70
2019-04-26T06:25:20.799Z,16.75
2019-04-26T06:28:07.235Z,14.85
2019-04-26T06:30:51.412Z,15.95
2019-04-26T06:33:38.182Z,16.23
2019-04-26T06:36:20.153Z,16.50
2019-04-26T06:39:30.507Z,12.73
2019-04-26T06:42:30.133Z,14.25
2019-04-26T06:45:40.576Z,17.65
2019-04-26T06:48:22.145Z,10.10
2019-04-26T06:51:04.942Z,11.45
2019-04-26T06:54:00.714Z,13.83
2019-04-26T06:56:53.116Z,17.90
2019-04-26T06:59:36.469Z,13.75
2019-04-26T07:02:21.315Z,16.67
2019-04-26T07:05:09.840Z,17.32
2019-04-26T07:08:09.169Z,15.18
2019-04-26T07:10:51.142Z,13.10
2019-04-26T07:13:46.893Z,13.10
2019-04-26T07:16:27.923Z,14.10
2019-04-26T07:19:54.110Z,12.43
2019-04-26T07:22:46.126Z,13.78
2019-04-26T07:26:13.743Z,14.33
2019-04-26T07:29:29.945Z,13.75
2019-04-26T07:32:17.234Z,13.00
2019-04-26T07:35:16.650Z,8.35
2019-04-26T07:38:46.397Z,13.32
2019-04-26T07:41:52.110Z,13.60
2019-04-26T07:44:51.438Z,11.97
2019-04-26T07:48:18.831Z,11.90
2019-04-26T07:51:28.116Z,13.38
2019-04-26T07:54:54.337Z,11.97
2019-04-26T07:57:49.903Z,12.15
2019-04-26T08:00:28.517Z,12.13
2019-04-26T08:03:29.062Z,11.20
2019-04-26T08:06:06.072Z,15.25
2019-04-26T08:08:45.877Z,9.28
2019-04-26T08:11:23.092Z,12.37
2019-04-26T08:14:30.334Z,11.10
2019-04-26T08:17:38.271Z,12.37
2019-04-26T08:20:31.959Z,15.70
2019-04-26T08:23:08.993Z,10.15
2019-04-26T08:25:41.118Z,11.70
2019-04-26T08:28:16.427Z,17.27
2019-04-26T08:30:50.793Z,12.98
2019-04-26T08:33:28.050Z,15.13
2019-04-26T08:36:02.191Z,13.78
2019-04-26T08:38:36.457Z,11.33
2019-04-26T08:41:09.862Z,18.62
2019-04-26T08:43:51.825Z,9.48
2019-04-26T08:46:52.202Z,16.15
2019-04-26T08:49:39.080Z,10.70
2019-04-26T08:52:14.907Z,13.20
2019-04-26T08:54:53.911Z,13.58
2019-04-26T08:57:29.621Z,14.05
2019-04-26T09:00:03.896Z,13.75
2019-04-26T09:03:11.435Z,12.05
2019-04-26T09:06:00.025Z,11.25
2019-04-26T09:08:39.188Z,9.33
2019-04-26T09:11:23.751Z,11.90
2019-04-26T09:13:49.901Z,16.32
2019-04-26T09:16:21.907Z,9.65
2019-04-26T09:18:57.268Z,10.60
2019-04-26T09:21:39.582Z,10.00
2019-04-26T09:24:25.057Z,16.73
2019-04-26T09:27:00.330Z,15.93
2019-04-26T09:30:04.914Z,12.47
2019-04-26T09:32:43.363Z,11.28
2019-04-26T09:35:16.249Z,13.48
2019-04-26T09:37:47.688Z,9.35
2019-04-26T09:40:22.539Z,12.50
2019-04-26T09:43:15.037Z,10.28
2019-04-26T09:46:04.560Z,10.55
2019-04-26T09:48:54.654Z,12.07
2019-04-26T09:51:26.266Z,9.98
2019-04-26T09:53:57.725Z,9.33
2019-04-26T09:56:28.874Z,12.50
2019-04-26T09:59:01.557Z,11.10
2019-04-26T10:01:33.776Z,11.45
2019-04-26T10:04:05.630Z,10.10
2019-04-26T10:06:37.019Z,14.25
2019-04-26T10:09:17.244Z,10.10
2019-04-26T10:11:57.829Z,7.72
2019-04-26T10:14:36.686Z,13.03
2019-04-26T10:17:20.627Z,9.18
2019-04-26T10:19:53.733Z,8.60
2019-04-26T10:22:27.130Z,9.55
2019-04-26T10:25:02.645Z,10.82
2019-04-26T10:27:32.443Z,13.25
2019-04-26T10:30:09.051Z,9.90
2019-04-26T10:32:38.065Z,13.90
2019-04-26T10:35:09.340Z,9.63
2019-04-26T10:37:44.039Z,7.62
2019-04-26T10:40:13.570Z,10.98
2019-04-26T10:42:44.731Z,10.32
2019-04-26T10:45:16.365Z,9.85
2019-04-26T10:47:47.644Z,8.65
2019-04-26T10:50:19.090Z,8.63
2019-04-26T10:52:59.710Z,9.50
2019-04-26T10:55:59.476Z,10.88
2019-04-26T10:58:37.832Z,9.00
2019-04-26T11:01:12.281Z,8.08
2019-04-26T11:03:43.524Z,9.20
2019-04-26T11:06:14.989Z,8.10
2019-04-26T11:08:47.056Z,8.68
2019-04-26T11:11:18.247Z,6.55
2019-04-26T11:13:49.678Z,14.68
2019-04-26T11:16:20.953Z,7.08
2019-04-26T11:18:52.198Z,6.20
2019-04-26T11:21:23.389Z,6.55
2019-04-26T11:23:54.597Z,8.98
2019-04-26T11:26:25.823Z,9.75
2019-04-26T11:28:57.181Z,7.28
2019-04-26T11:31:29.416Z,9.98
2019-04-26T11:34:05.385Z,11.73
2019-04-26T11:36:33.532Z,6.60
2019-04-26T11:39:07.543Z,7.15
2019-04-26T11:41:39.184Z,8.60
2019-04-26T11:44:10.417Z,8.28
2019-04-26T11:46:44.926Z,6.35
2019-04-26T11:49:14.269Z,9.68
2019-04-26T11:51:45.430Z,8.43
2019-04-26T11:54:17.059Z,8.05
2019-04-26T11:56:50.452Z,11.43
2019-04-26T11:59:21.817Z,13.45
2019-04-26T12:01:52.987Z,7.60
2019-04-26T12:04:33.474Z,10.68
2019-04-26T12:07:14.130Z,8.58
2019-04-26T12:09:46.823Z,6.67
2019-04-26T12:12:18.071Z,6.97
2019-04-26T12:14:49.292Z,11.45
2019-04-26T12:17:20.418Z,9.23
2019-04-26T12:19:52.183Z,10.82
2019-04-26T12:22:24.402Z,10.35
2019-04-26T12:24:55.520Z,8.48
2019-04-26T12:27:30.730Z,11.08
2019-04-26T12:29:59.720Z,9.63
2019-04-26T12:32:30.794Z,6.92
2019-04-26T12:35:01.997Z,9.18
2019-04-26T12:37:33.246Z,6.67
2019-04-26T12:40:07.184Z,7.53
2019-04-26T12:42:38.888Z,10.03
2019-04-26T12:45:41.374Z,9.13
2019-04-26T12:48:15.708Z,10.85
2019-04-26T12:50:47.192Z,7.45
2019-04-26T12:53:18.316Z,10.63
2019-04-26T12:55:53.176Z,11.43
2019-04-26T12:58:22.442Z,7.47
2019-04-26T13:00:54.601Z,9.78
2019-04-26T13:03:29.222Z,11.78
2019-04-26T13:05:59.098Z,7.10
2019-04-26T13:08:30.392Z,8.50
2019-04-26T13:11:29.567Z,7.72
2019-04-26T13:14:19.561Z,7.83
2019-04-26T13:17:21.814Z,7.17
2019-04-26T13:19:54.057Z,7.72
2019-04-26T13:22:25.834Z,4.90
2019-04-26T13:24:56.951Z,8.75
2019-04-26T13:27:30.951Z,6.90
2019-04-26T13:30:10.379Z,6.83
2019-04-26T13:32:39.615Z,8.25
2019-04-26T13:35:11.517Z,7.42
2019-04-26T13:37:44.788Z,5.37
2019-04-26T13:40:25.735Z,9.95
2019-04-26T13:42:56.984Z,12.30
2019-04-26T13:46:02.440Z,5.87
2019-04-26T13:48:52.473Z,7.60
2019-04-26T13:51:24.115Z,5.78
2019-04-26T13:53:55.210Z,6.20
2019-04-26T13:56:26.262Z,8.28
2019-04-26T13:58:58.342Z,6.30
2019-04-26T14:01:30.124Z,6.42
2019-04-26T14:04:02.405Z,5.47
2019-04-26T14:06:34.009Z,7.37
2019-04-26T14:09:07.413Z,6.60
2019-04-26T14:11:39.633Z,5.97
2019-04-26T14:14:10.804Z,7.12
2019-04-26T14:16:41.976Z,7.20
2019-04-26T14:19:15.522Z,10.43
2019-04-26T14:21:46.469Z,5.45
2019-04-26T14:24:42.063Z,9.10
2019-04-26T14:27:30.728Z,5.72
2019-04-26T14:30:02.532Z,9.00
2019-04-26T14:32:42.710Z,8.73
2019-04-26T14:35:18.387Z,4.83
2019-04-26T14:37:50.276Z,7.12
2019-04-26T14:40:26.672Z,9.95
2019-04-26T14:43:06.887Z,6.35
2019-04-26T14:45:39.912Z,11.38
2019-04-26T14:48:20.485Z,7.72
2019-04-26T14:50:47.614Z,8.23
2019-04-26T14:53:19.013Z,8.63
2019-04-26T14:55:54.578Z,5.60
2019-04-26T14:58:30.083Z,10.95
2019-04-26T15:01:03.676Z,6.67
2019-04-26T15:03:45.829Z,11.28
2019-04-26T15:06:29.971Z,7.05
2019-04-26T15:09:02.916Z,9.30
2019-04-26T15:11:36.177Z,11.35
2019-04-26T15:14:08.182Z,4.50
2019-04-26T15:16:41.453Z,4.03
2019-04-26T15:19:14.068Z,9.18
2019-04-26T15:21:44.776Z,6.50
2019-04-26T15:24:15.983Z,5.17
2019-04-26T15:26:47.134Z,7.10
2019-04-26T15:29:21.273Z,6.85
2019-04-26T15:31:53.562Z,7.53
2019-04-26T15:34:26.572Z,11.85
2019-04-26T15:36:56.560Z,7.22
2019-04-26T15:39:42.377Z,10.70
2019-04-26T15:42:39.064Z,4.65
2019-04-26T15:45:25.101Z,34.00
2019-04-26T15:48:20.167Z,7.90
2019-04-26T15:50:53.935Z,7.05
2019-04-26T15:53:24.909Z,5.15
2019-04-26T15:55:56.245Z,9.48
2019-04-26T15:58:27.378Z,7.92
2019-04-26T16:00:58.629Z,11.65
2019-04-26T16:03:29.796Z,5.75
2019-04-26T16:06:07.038Z,7.90
2019-04-26T16:08:42.341Z,7.47
2019-04-26T16:11:07.279Z,6.60
2019-04-26T16:13:39.381Z,6.33
2019-04-26T16:16:12.495Z,6.15
2019-04-26T16:18:43.205Z,9.60
2019-04-26T16:21:17.977Z,7.58
2019-04-26T16:23:51.487Z,8.85
2019-04-26T16:26:19.974Z,9.73
2019-04-26T16:29:18.156Z,12.25
2019-04-26T16:32:32.529Z,15.08
2019-04-26T16:35:34.582Z,13.68
2019-04-26T16:38:25.717Z,10.68
2019-04-26T16:41:05.977Z,6.67
2019-04-26T16:43:53.257Z,7.80
2019-04-26T16:46:24.796Z,9.08
2019-04-26T16:49:05.892Z,5.72
2019-04-26T16:51:41.197Z,7.42
2019-04-26T16:54:20.673Z,7.30
2019-04-26T16:56:59.090Z,6.25
2019-04-26T16:59:47.407Z,6.22
2019-04-26T17:02:15.962Z,11.73
2019-04-26T17:04:48.487Z,9.33
2019-04-26T17:07:25.371Z,8.23
2019-04-26T17:09:58.004Z,4.53
2019-04-26T17:12:25.770Z,6.05
2019-04-26T17:14:56.809Z,9.10
2019-04-26T17:17:27.977Z,9.53
2019-04-26T17:19:59.055Z,6.25
2019-04-26T17:22:59.428Z,11.00
2019-04-26T17:25:45.516Z,12.75
2019-04-26T17:28:18.005Z,8.60
2019-04-26T17:30:49.492Z,7.85
2019-04-26T17:33:22.739Z,7.85
2019-04-26T17:35:53.369Z,11.63
2019-04-26T17:38:25.300Z,8.93
2019-04-26T17:40:56.697Z,9.85
2019-04-26T17:43:28.232Z,11.00
2019-04-26T17:46:01.057Z,9.50
2019-04-26T17:48:33.616Z,10.72
2019-04-26T17:51:04.955Z,10.60
2019-04-26T17:53:36.206Z,12.05
2019-04-26T17:56:07.599Z,8.25
2019-04-26T17:58:51.239Z,8.80
2019-04-26T18:01:33.520Z,10.98
2019-04-26T18:03:52.031Z,18.85
2019-04-26T18:06:29.429Z,13.00
2019-04-26T18:08:55.232Z,15.85
2019-04-26T18:11:25.751Z,7.85
2019-04-26T18:13:57.267Z,10.78
2019-04-26T18:16:29.629Z,12.10
2019-04-26T18:19:30.469Z,11.63
2019-04-26T18:22:07.402Z,25.68
2019-04-26T18:24:38.683Z,15.88
2019-04-26T18:27:09.912Z,14.50
2019-04-26T18:29:43.667Z,14.23
2019-04-26T18:32:16.702Z,10.43
2019-04-26T18:34:48.241Z,16.75
2019-04-26T18:37:23.128Z,13.05
2019-04-26T18:39:57.399Z,13.28
2019-04-26T18:42:27.814Z,11.53
2019-04-26T18:44:59.248Z,13.32
2019-04-26T18:47:37.987Z,12.40
2019-04-26T18:50:09.891Z,11.38
2019-04-26T18:52:59.833Z,14.90
2019-04-26T18:55:34.339Z,18.45
2019-04-26T18:58:05.530Z,11.88
2019-04-26T19:00:38.861Z,11.12
2019-04-26T19:03:13.337Z,9.38
2019-04-26T19:05:43.918Z,13.32
2019-04-26T19:08:15.200Z,10.38
2019-04-26T19:10:58.486Z,12.65
2019-04-26T19:13:41.287Z,10.48
2019-04-26T19:16:25.028Z,16.82
2019-04-26T19:19:03.818Z,18.70
2019-04-26T19:21:41.070Z,12.35
2019-04-26T19:24:19.412Z,12.25
2019-04-26T19:26:49.566Z,14.95
2019-04-26T19:29:27.401Z,16.70
2019-04-26T19:31:52.354Z,16.07
2019-04-26T19:34:26.082Z,21.55
2019-04-26T19:36:59.716Z,23.00
2019-04-26T19:39:33.270Z,19.30
2019-04-26T19:42:02.546Z,22.73
2019-04-26T19:44:34.957Z,17.45
2019-04-26T19:47:25.096Z,14.30
2019-04-26T19:50:13.492Z,15.93
2019-04-26T19:53:10.344Z,17.80
2019-04-26T19:55:59.250Z,14.78
2019-04-26T19:58:32.153Z,13.93
2019-04-26T20:01:04.798Z,15.55
2019-04-26T20:03:36.140Z,17.90
2019-04-26T20:06:07.464Z,18.27
2019-04-26T20:08:43.955Z,12.90
2019-04-26T20:11:14.323Z,12.65
2019-04-26T20:13:47.039Z,11.55
2019-04-26T20:16:17.720Z,12.00
2019-04-26T20:18:49.099Z,11.83
2019-04-26T20:21:21.627Z,12.33
2019-04-26T20:23:54.532Z,13.62
2019-04-26T20:26:25.946Z,9.18
2019-04-26T20:28:57.328Z,15.10
2019-04-26T20:31:44.975Z,12.63
2019-04-26T20:34:18.177Z,10.03
2019-04-26T20:36:47.817Z,12.45
2019-04-26T20:39:21.025Z,11.03
2019-04-26T20:42:01.036Z,16.90
2019-04-26T20:44:28.464Z,17.77
2019-04-26T20:46:59.857Z,17.32
2019-04-26T20:49:32.178Z,12.13
2019-04-26T20:52:04.152Z,11.23
2019-04-26T20:54:35.327Z,12.67
2019-04-26T20:57:06.511Z,15.13
2019-04-26T20:59:38.677Z,15.10
2019-04-26T21:02:12.103Z,13.27
2019-04-26T21:04:46.048Z,16.23
2019-04-26T21:07:16.152Z,10.80
2019-04-26T21:09:47.802Z,11.17
2019-04-26T21:12:19.984Z,16.27
2019-04-26T21:14:51.762Z,14.40
2019-04-26T21:17:27.690Z,17.70
2019-04-26T21:19:58.677Z,17.63
2019-04-26T21:22:31.666Z,16.03
2019-04-26T21:25:08.364Z,13.23
2019-04-26T21:28:02.381Z,16.50
2019-04-26T21:30:51.559Z,20.57
2019-04-26T21:33:42.936Z,17.90
2019-04-26T21:36:40.954Z,15.30
2019-04-26T21:39:21.641Z,17.60
2019-04-26T21:41:53.227Z,11.93
2019-04-26T21:44:25.766Z,10.77
2019-04-26T21:46:58.900Z,8.97
2019-04-26T21:49:29.937Z,8.80
2019-04-26T21:52:01.185Z,8.13
2019-04-26T21:54:32.976Z,8.95
2019-04-26T21:57:04.553Z,8.08
2019-04-26T21:59:40.891Z,17.07
2019-04-26T22:02:09.094Z,8.20
2019-04-26T22:04:40.900Z,13.20
2019-04-26T22:07:12.424Z,6.10
2019-04-26T22:10:09.222Z,7.77
2019-04-26T22:12:38.581Z,10.05
2019-04-26T22:15:35.841Z,7.78
2019-04-26T22:18:10.245Z,11.47
2019-04-26T22:20:58.055Z,7.40
2019-04-26T22:23:47.585Z,8.50
2019-04-26T22:26:18.876Z,9.45
2019-04-26T22:28:50.315Z,5.77
2019-04-26T22:31:23.699Z,7.10
2019-04-26T22:33:56.130Z,12.05
2019-04-26T22:36:30.876Z,9.27
2019-04-26T22:39:02.705Z,10.45
2019-04-26T22:41:36.097Z,17.67
2019-04-26T22:44:15.805Z,11.63
2019-04-26T22:47:15.666Z,9.50
2019-04-26T22:49:47.257Z,19.87
2019-04-26T22:52:19.077Z,9.70
2019-04-26T22:54:50.577Z,8.97
2019-04-26T22:57:23.237Z,8.37
2019-04-26T22:59:54.626Z,12.07
2019-04-26T23:02:27.750Z,19.93
2019-04-26T23:05:00.614Z,9.10
2019-04-26T23:07:33.226Z,11.63
2019-04-26T23:10:06.913Z,9.47
2019-04-26T23:13:04.491Z,11.80
2019-04-26T23:15:44.508Z,20.00
2019-04-26T23:18:46.976Z,14.83
2019-04-26T23:21:25.379Z,16.10
2019-04-26T23:23:57.006Z,20.67
2019-04-26T23:26:28.238Z,17.57
2019-04-26T23:28:59.484Z,17.63
2019-04-26T23:31:30.774Z,16.67
2019-04-26T23:34:02.985Z,17.50
2019-04-26T23:36:34.895Z,19.33
2019-04-26T23:39:07.672Z,19.37
2019-04-26T23:41:41.642Z,15.67
2019-04-26T23:44:13.983Z,20.20
2019-04-26T23:46:45.132Z,20.57
2019-04-26T23:49:19.264Z,17.40
2019-04-26T23:51:49.121Z,17.13
2019-04-26T23:54:20.180Z,18.83
2019-04-26T23:56:55.717Z,16.67
2019-04-26T23:59:24.799Z,18.83
